createdAt,value
2023-06-30T00:01:34.515Z,67.70
2023-06-30T00:04:02.580Z,67.30
2023-06-30T00:06:31.984Z,67.50
2023-06-30T00:08:58.848Z,67.20
2023-06-30T00:11:25.513Z,67.10
2023-06-30T00:13:52.583Z,67.40
2023-06-30T00:16:22.158Z,67.30
2023-06-30T00:18:48.884Z,67.60
2023-06-30T00:21:15.584Z,67.40
2023-06-30T00:23:44.603Z,67.60
2023-06-30T00:26:11.188Z,67.50
2023-06-30T00:28:40.235Z,67.90
2023-06-30T00:31:06.870Z,67.50
2023-06-30T00:33:35.702Z,67.50
2023-06-30T00:36:02.313Z,68.30
2023-06-30T00:38:31.377Z,67.90
2023-06-30T00:41:00.202Z,68.80
2023-06-30T00:43:29.006Z,69.30
2023-06-30T00:45:56.195Z,69.90
2023-06-30T00:48:25.504Z,69.90
2023-06-30T00:50:52.143Z,69.90
2023-06-30T00:53:19.618Z,69.90
2023-06-30T00:55:46.470Z,70.20
2023-06-30T00:58:13.260Z,69.80
2023-06-30T01:00:40.188Z,70.90
2023-06-30T01:03:22.305Z,70.20
2023-06-30T01:05:57.819Z,70.90
2023-06-30T01:08:31.963Z,70.80
2023-06-30T01:10:58.924Z,71.10
2023-06-30T01:13:28.614Z,71.80
2023-06-30T01:15:58.086Z,72.00
2023-06-30T01:18:33.689Z,72.10
2023-06-30T01:21:01.043Z,72.40
2023-06-30T01:23:34.513Z,72.50
2023-06-30T01:26:02.517Z,73.60
2023-06-30T01:28:34.392Z,73.40
2023-06-30T01:31:07.115Z,73.30
2023-06-30T01:33:35.065Z,73.80
2023-06-30T01:36:04.325Z,74.00
2023-06-30T01:38:31.063Z,74.50
2023-06-30T01:41:01.088Z,75.10
2023-06-30T01:43:30.351Z,75.40
2023-06-30T01:45:59.434Z,74.80
2023-06-30T01:48:26.195Z,74.90
2023-06-30T01:50:56.720Z,75.00
2023-06-30T01:53:23.414Z,74.60
2023-06-30T01:55:50.066Z,74.60
2023-06-30T01:58:19.441Z,75.10
2023-06-30T02:00:46.072Z,74.80
2023-06-30T02:03:12.757Z,75.20
2023-06-30T02:05:39.441Z,75.40
2023-06-30T02:08:06.085Z,75.60
2023-06-30T02:10:32.720Z,75.40
2023-06-30T02:12:59.449Z,75.30
2023-06-30T02:15:26.028Z,75.20
2023-06-30T02:17:54.975Z,76.60
2023-06-30T02:20:21.683Z,77.20
2023-06-30T02:22:48.949Z,77.30
2023-06-30T02:25:15.606Z,77.20
2023-06-30T02:27:43.713Z,77.20
2023-06-30T02:30:10.541Z,77.30
2023-06-30T02:32:41.287Z,77.10
2023-06-30T02:35:08.675Z,77.20
2023-06-30T02:37:38.080Z,77.20
2023-06-30T02:40:05.773Z,77.20
2023-06-30T02:42:32.635Z,77.30
2023-06-30T02:45:01.636Z,77.20
2023-06-30T02:47:28.289Z,77.40
2023-06-30T02:49:54.924Z,77.20
2023-06-30T02:52:21.577Z,77.20
2023-06-30T02:54:48.245Z,77.40
2023-06-30T02:57:14.861Z,77.30
2023-06-30T02:59:41.464Z,77.30
2023-06-30T03:02:08.298Z,77.30
2023-06-30T03:04:35.020Z,77.30
2023-06-30T03:07:01.673Z,77.20
2023-06-30T03:09:28.337Z,77.20
2023-06-30T03:11:54.934Z,77.10
2023-06-30T03:14:24.072Z,77.00
2023-06-30T03:16:53.156Z,77.30
2023-06-30T03:19:19.804Z,77.30
2023-06-30T03:21:48.545Z,77.30
2023-06-30T03:24:17.605Z,77.30
2023-06-30T03:26:46.630Z,77.40
2023-06-30T03:29:13.247Z,77.40
2023-06-30T03:31:39.866Z,77.40
2023-06-30T03:34:06.419Z,77.40
2023-06-30T03:36:33.027Z,77.40
2023-06-30T03:38:59.649Z,77.40
2023-06-30T03:41:31.337Z,77.40
2023-06-30T03:43:57.965Z,77.40
2023-06-30T03:46:24.618Z,77.30
2023-06-30T03:48:51.323Z,77.30
2023-06-30T03:51:17.922Z,77.40
2023-06-30T03:53:44.758Z,77.30
2023-06-30T03:56:11.440Z,77.40
2023-06-30T03:58:38.218Z,77.40
2023-06-30T04:01:04.960Z,77.40
2023-06-30T04:03:32.227Z,77.40
2023-06-30T04:06:01.426Z,77.30
2023-06-30T04:08:28.127Z,77.40
2023-06-30T04:10:54.886Z,77.30
2023-06-30T04:13:21.498Z,77.30
2023-06-30T04:15:48.384Z,76.90
2023-06-30T04:18:15.022Z,77.30
2023-06-30T04:20:41.621Z,77.40
2023-06-30T04:23:08.288Z,77.40
2023-06-30T04:25:34.930Z,77.40
2023-06-30T04:28:01.535Z,77.40
2023-06-30T04:30:28.177Z,77.30
2023-06-30T04:32:56.981Z,77.40
2023-06-30T04:35:26.226Z,77.40
2023-06-30T04:37:55.383Z,77.40
2023-06-30T04:40:22.275Z,77.40
2023-06-30T04:42:48.885Z,77.40
2023-06-30T04:45:16.390Z,77.40
2023-06-30T04:47:47.209Z,77.40
2023-06-30T04:50:13.857Z,77.40
2023-06-30T04:52:40.453Z,77.40
2023-06-30T04:55:11.867Z,77.40
2023-06-30T04:57:38.460Z,77.40
2023-06-30T05:00:05.384Z,77.40
2023-06-30T05:02:32.036Z,77.40
2023-06-30T05:05:00.842Z,77.40
2023-06-30T05:07:27.541Z,77.40
2023-06-30T05:09:56.381Z,77.40
2023-06-30T05:12:23.069Z,77.40
2023-06-30T05:14:50.128Z,77.40
2023-06-30T05:17:16.882Z,77.40
2023-06-30T05:19:46.256Z,77.40
2023-06-30T05:22:12.957Z,77.40
2023-06-30T05:24:39.640Z,77.40
2023-06-30T05:27:06.220Z,77.40
2023-06-30T05:29:33.111Z,77.40
2023-06-30T05:32:00.027Z,77.30
2023-06-30T05:34:26.901Z,77.40
2023-06-30T05:36:53.687Z,77.40
2023-06-30T05:39:20.283Z,77.30
2023-06-30T05:41:46.871Z,77.30
2023-06-30T05:44:13.811Z,77.30
2023-06-30T05:46:40.540Z,77.40
2023-06-30T05:49:10.402Z,77.40
2023-06-30T05:51:37.246Z,77.40
2023-06-30T05:54:04.270Z,77.40
2023-06-30T05:56:30.946Z,77.40
2023-06-30T05:58:59.978Z,77.40
2023-06-30T06:01:26.751Z,77.40
2023-06-30T06:03:53.592Z,77.40
2023-06-30T06:06:22.163Z,77.40
2023-06-30T06:08:48.869Z,77.40
2023-06-30T06:11:15.517Z,77.40
2023-06-30T06:13:42.163Z,77.40
2023-06-30T06:16:08.861Z,77.40
2023-06-30T06:18:35.486Z,77.40
2023-06-30T06:21:03.153Z,77.40
2023-06-30T06:23:32.317Z,77.40
2023-06-30T06:25:59.327Z,77.30
2023-06-30T06:28:28.338Z,76.30
2023-06-30T06:30:55.361Z,76.10
2023-06-30T06:33:24.468Z,75.90
2023-06-30T06:35:52.252Z,75.30
2023-06-30T06:38:19.512Z,74.60
2023-06-30T06:40:46.527Z,74.40
2023-06-30T06:43:15.846Z,74.00
2023-06-30T06:45:45.317Z,74.10
2023-06-30T06:48:21.497Z,73.60
2023-06-30T06:50:51.699Z,73.30
2023-06-30T06:53:21.169Z,73.30
2023-06-30T06:55:53.943Z,73.10
2023-06-30T06:58:25.629Z,73.10
2023-06-30T07:00:52.650Z,73.10
2023-06-30T07:03:20.297Z,73.10
2023-06-30T07:05:49.546Z,72.80
2023-06-30T07:08:20.134Z,72.90
2023-06-30T07:10:47.110Z,72.70
2023-06-30T07:13:17.618Z,72.90
2023-06-30T07:15:46.492Z,72.70
2023-06-30T07:18:13.440Z,72.60
2023-06-30T07:20:40.111Z,72.90
2023-06-30T07:23:09.205Z,72.80
2023-06-30T07:25:35.806Z,72.70
2023-06-30T07:28:02.801Z,72.40
2023-06-30T07:30:29.465Z,72.50
2023-06-30T07:32:58.768Z,72.70
2023-06-30T07:35:27.690Z,72.00
2023-06-30T07:37:57.005Z,71.40
2023-06-30T07:40:24.302Z,71.50
2023-06-30T07:42:51.350Z,71.40
2023-06-30T07:45:20.528Z,71.30
2023-06-30T07:47:49.102Z,71.20
2023-06-30T07:50:18.580Z,71.20
2023-06-30T07:52:47.048Z,70.80
2023-06-30T07:55:17.288Z,70.50
2023-06-30T07:57:47.254Z,70.30
2023-06-30T08:00:16.442Z,69.90
2023-06-30T08:02:43.846Z,70.10
2023-06-30T08:05:13.420Z,69.90
2023-06-30T08:07:44.346Z,69.70
2023-06-30T08:10:16.847Z,69.70
2023-06-30T08:12:43.480Z,69.60
2023-06-30T08:15:10.317Z,69.20
2023-06-30T08:17:52.837Z,69.40
2023-06-30T08:20:20.373Z,69.10
2023-06-30T08:22:47.265Z,68.80
2023-06-30T08:25:16.998Z,68.60
2023-06-30T08:27:43.705Z,68.50
2023-06-30T08:30:10.598Z,68.50
2023-06-30T08:32:39.710Z,68.60
2023-06-30T08:35:06.526Z,68.40
2023-06-30T08:37:33.223Z,68.00
2023-06-30T08:40:00.874Z,67.80
2023-06-30T08:42:36.431Z,68.20
2023-06-30T08:45:03.761Z,67.80
2023-06-30T08:47:32.731Z,68.00
2023-06-30T08:49:59.521Z,67.90
2023-06-30T08:52:26.375Z,67.90
2023-06-30T08:54:53.986Z,67.80
2023-06-30T08:57:21.494Z,67.90
2023-06-30T08:59:48.188Z,67.70
2023-06-30T09:02:14.914Z,68.00
2023-06-30T09:04:41.915Z,67.60
2023-06-30T09:07:09.207Z,67.30
2023-06-30T09:09:59.039Z,67.10
2023-06-30T09:12:28.130Z,66.80
2023-06-30T09:14:57.457Z,66.80
2023-06-30T09:17:27.094Z,66.60
2023-06-30T09:19:53.777Z,66.70
2023-06-30T09:22:54.852Z,66.70
2023-06-30T09:25:27.700Z,65.90
2023-06-30T09:27:55.008Z,66.30
2023-06-30T09:30:42.706Z,66.20
2023-06-30T09:33:09.940Z,66.00
2023-06-30T09:35:40.387Z,65.80
2023-06-30T09:38:13.530Z,65.40
2023-06-30T09:40:46.229Z,65.70
2023-06-30T09:43:21.691Z,65.50
2023-06-30T09:45:56.960Z,65.40
2023-06-30T09:48:29.871Z,65.40
2023-06-30T09:50:56.629Z,65.40
2023-06-30T09:53:30.170Z,64.80
2023-06-30T09:55:59.257Z,64.90
2023-06-30T09:58:28.315Z,64.70
2023-06-30T10:00:54.898Z,64.40
2023-06-30T10:03:23.981Z,63.20
2023-06-30T10:05:50.810Z,63.30
2023-06-30T10:08:17.676Z,63.50
2023-06-30T10:10:44.796Z,63.30
2023-06-30T10:13:14.343Z,62.70
2023-06-30T10:15:47.120Z,61.30
2023-06-30T10:18:15.909Z,59.30
2023-06-30T10:20:49.014Z,59.00
2023-06-30T10:23:22.948Z,58.30
2023-06-30T10:25:52.494Z,57.20
2023-06-30T10:28:21.946Z,57.30
2023-06-30T10:30:54.649Z,57.40
2023-06-30T10:33:23.921Z,56.70
2023-06-30T10:35:50.776Z,57.60
2023-06-30T10:38:17.491Z,57.30
2023-06-30T10:40:47.055Z,57.40
2023-06-30T10:43:14.848Z,57.70
2023-06-30T10:46:00.242Z,56.50
2023-06-30T10:48:28.294Z,56.70
2023-06-30T10:50:54.894Z,57.00
2023-06-30T10:53:24.183Z,56.30
2023-06-30T10:55:55.631Z,56.80
2023-06-30T10:58:23.966Z,56.10
2023-06-30T11:01:06.307Z,56.00
2023-06-30T11:03:51.526Z,56.70
2023-06-30T11:06:21.785Z,56.30
2023-06-30T11:09:02.061Z,56.40
2023-06-30T11:11:31.168Z,56.20
2023-06-30T11:14:04.968Z,56.30
2023-06-30T11:16:31.670Z,56.90
2023-06-30T11:19:01.594Z,56.70
2023-06-30T11:21:28.382Z,57.30
2023-06-30T11:24:01.162Z,57.20
2023-06-30T11:26:27.802Z,56.90
2023-06-30T11:28:54.473Z,56.80
2023-06-30T11:31:21.313Z,57.40
2023-06-30T11:33:50.432Z,57.00
2023-06-30T11:36:17.882Z,56.20
2023-06-30T11:38:51.684Z,56.10
2023-06-30T11:41:19.166Z,55.40
2023-06-30T11:43:52.237Z,55.80
2023-06-30T11:46:21.691Z,55.80
2023-06-30T11:48:48.988Z,55.60
2023-06-30T11:51:15.592Z,55.50
2023-06-30T11:53:48.963Z,55.70
2023-06-30T11:56:15.600Z,53.70
2023-06-30T11:58:51.266Z,53.30
2023-06-30T12:01:18.277Z,53.30
2023-06-30T12:03:47.252Z,53.40
2023-06-30T12:06:19.830Z,53.40
2023-06-30T12:08:48.850Z,53.60
2023-06-30T12:11:16.926Z,53.20
2023-06-30T12:13:44.012Z,52.90
2023-06-30T12:16:10.667Z,52.20
2023-06-30T12:18:38.092Z,51.80
2023-06-30T12:21:11.468Z,52.10
2023-06-30T12:23:45.116Z,52.40
2023-06-30T12:26:14.449Z,52.60
2023-06-30T12:28:42.032Z,52.30
2023-06-30T12:31:08.670Z,51.50
2023-06-30T12:33:35.336Z,50.30
2023-06-30T12:36:06.216Z,51.00
2023-06-30T12:38:32.882Z,50.30
2023-06-30T12:40:59.542Z,48.00
2023-06-30T12:43:28.223Z,49.00
2023-06-30T12:45:57.326Z,48.90
2023-06-30T12:48:23.996Z,49.10
2023-06-30T12:50:53.119Z,47.90
2023-06-30T12:53:19.808Z,47.00
2023-06-30T12:55:46.610Z,48.10
2023-06-30T12:58:13.292Z,48.00
2023-06-30T13:00:42.146Z,48.10
2023-06-30T13:03:11.717Z,47.60
2023-06-30T13:05:39.074Z,48.60
2023-06-30T13:08:08.201Z,47.90
2023-06-30T13:10:34.967Z,47.80
2023-06-30T13:13:04.063Z,47.70
2023-06-30T13:15:33.054Z,47.70
2023-06-30T13:17:59.658Z,47.50
2023-06-30T13:20:26.449Z,46.70
2023-06-30T13:23:09.962Z,46.70
2023-06-30T13:25:43.937Z,46.90
2023-06-30T13:28:10.877Z,45.00
2023-06-30T13:30:37.494Z,47.50
2023-06-30T13:33:04.181Z,46.80
2023-06-30T13:35:31.144Z,45.90
2023-06-30T13:38:00.191Z,46.90
2023-06-30T13:40:29.217Z,46.80
2023-06-30T13:42:55.822Z,46.40
2023-06-30T13:45:22.492Z,46.40
2023-06-30T13:47:50.069Z,45.60
2023-06-30T13:50:17.071Z,45.30
2023-06-30T13:52:44.257Z,45.30
2023-06-30T13:55:10.927Z,45.10
2023-06-30T13:57:37.639Z,45.30
2023-06-30T14:00:04.953Z,44.50
2023-06-30T14:02:33.788Z,46.00
2023-06-30T14:05:03.213Z,45.40
2023-06-30T14:07:30.142Z,44.80
2023-06-30T14:09:57.219Z,45.80
2023-06-30T14:12:26.121Z,44.80
2023-06-30T14:14:55.232Z,43.60
2023-06-30T14:17:21.954Z,45.30
2023-06-30T14:19:48.678Z,45.30
2023-06-30T14:22:15.309Z,45.30
2023-06-30T14:24:41.911Z,44.50
2023-06-30T14:27:08.581Z,44.30
2023-06-30T14:29:37.677Z,44.80
2023-06-30T14:32:04.783Z,44.40
2023-06-30T14:34:31.331Z,44.40
2023-06-30T14:36:58.003Z,43.80
2023-06-30T14:39:24.660Z,44.10
2023-06-30T14:42:02.035Z,44.40
2023-06-30T14:44:29.510Z,44.20
2023-06-30T14:46:56.263Z,43.60
2023-06-30T14:49:22.968Z,44.00
2023-06-30T14:51:49.595Z,43.90
2023-06-30T14:54:16.213Z,42.60
2023-06-30T14:56:43.227Z,44.40
2023-06-30T14:59:09.863Z,43.80
2023-06-30T15:01:36.484Z,43.70
2023-06-30T15:04:03.181Z,43.90
2023-06-30T15:06:29.852Z,43.20
2023-06-30T15:08:56.512Z,43.70
2023-06-30T15:11:23.110Z,44.00
2023-06-30T15:13:52.152Z,43.70
2023-06-30T15:16:21.205Z,43.90
2023-06-30T15:18:47.846Z,43.50
2023-06-30T15:21:14.429Z,43.60
2023-06-30T15:23:41.126Z,43.00
2023-06-30T15:26:07.733Z,42.60
2023-06-30T15:28:34.496Z,41.70
2023-06-30T15:31:01.146Z,42.40
2023-06-30T15:33:28.740Z,42.30
2023-06-30T15:35:57.800Z,42.20
2023-06-30T15:38:24.393Z,42.00
2023-06-30T15:40:59.620Z,42.10
2023-06-30T15:43:30.341Z,41.80
2023-06-30T15:45:59.456Z,42.00
2023-06-30T15:48:28.318Z,42.30
2023-06-30T15:50:57.336Z,41.30
2023-06-30T15:53:24.015Z,41.40
2023-06-30T15:55:50.636Z,40.70
2023-06-30T15:58:19.700Z,41.80
2023-06-30T16:00:48.810Z,42.10
2023-06-30T16:03:16.822Z,41.90
2023-06-30T16:05:43.657Z,41.90
2023-06-30T16:08:10.953Z,41.40
2023-06-30T16:10:37.550Z,42.20
2023-06-30T16:13:10.849Z,40.90
2023-06-30T16:15:39.771Z,40.80
2023-06-30T16:18:08.895Z,41.30
2023-06-30T16:20:36.072Z,41.70
2023-06-30T16:23:02.760Z,42.10
2023-06-30T16:25:31.899Z,41.30
2023-06-30T16:27:58.497Z,40.90
2023-06-30T16:30:29.800Z,41.00
2023-06-30T16:32:57.785Z,41.20
2023-06-30T16:35:25.561Z,39.00
2023-06-30T16:37:52.840Z,40.60
2023-06-30T16:40:19.891Z,40.30
2023-06-30T16:42:47.156Z,39.70
2023-06-30T16:45:13.940Z,39.00
2023-06-30T16:47:47.046Z,39.40
2023-06-30T16:50:16.295Z,39.70
2023-06-30T16:52:43.892Z,39.30
2023-06-30T16:55:15.015Z,39.80
2023-06-30T16:57:41.626Z,40.10
2023-06-30T17:00:11.118Z,40.00
2023-06-30T17:02:38.500Z,39.60
2023-06-30T17:05:06.087Z,39.00
2023-06-30T17:07:32.844Z,39.30
2023-06-30T17:09:59.571Z,39.40
2023-06-30T17:12:26.172Z,39.30
2023-06-30T17:14:52.788Z,38.60
2023-06-30T17:17:23.784Z,38.90
2023-06-30T17:19:52.234Z,38.20
2023-06-30T17:22:18.854Z,38.70
2023-06-30T17:24:45.584Z,38.80
2023-06-30T17:27:14.698Z,38.40
2023-06-30T17:29:41.371Z,38.00
2023-06-30T17:32:08.371Z,38.00
2023-06-30T17:34:35.266Z,37.70
2023-06-30T17:37:02.496Z,38.30
2023-06-30T17:39:29.407Z,38.10
2023-06-30T17:41:58.243Z,38.60
2023-06-30T17:44:28.767Z,38.80
2023-06-30T17:46:57.081Z,38.20
2023-06-30T17:49:27.075Z,37.90
2023-06-30T17:51:56.308Z,38.90
2023-06-30T17:54:23.555Z,38.50
2023-06-30T17:56:50.376Z,38.80
2023-06-30T17:59:17.240Z,38.70
2023-06-30T18:01:46.794Z,38.70
2023-06-30T18:04:14.108Z,38.60
2023-06-30T18:07:01.340Z,38.70
2023-06-30T18:09:28.789Z,39.10
2023-06-30T18:11:55.606Z,39.40
2023-06-30T18:14:22.793Z,39.30
2023-06-30T18:16:49.525Z,39.60
2023-06-30T18:19:18.399Z,39.70
2023-06-30T18:21:46.363Z,39.70
2023-06-30T18:24:14.722Z,40.00
2023-06-30T18:26:41.437Z,40.20
2023-06-30T18:29:09.105Z,40.50
2023-06-30T18:31:38.518Z,40.30
2023-06-30T18:34:05.957Z,40.60
2023-06-30T18:36:32.817Z,40.20
2023-06-30T18:39:01.512Z,40.80
2023-06-30T18:41:31.278Z,40.60
2023-06-30T18:43:57.897Z,40.90
2023-06-30T18:46:25.583Z,40.50
2023-06-30T18:48:54.956Z,40.40
2023-06-30T18:51:21.577Z,41.00
2023-06-30T18:53:50.453Z,40.90
2023-06-30T18:56:17.216Z,41.00
2023-06-30T18:58:43.865Z,41.20
2023-06-30T19:01:11.863Z,41.40
2023-06-30T19:03:41.522Z,41.50
2023-06-30T19:06:08.333Z,41.40
2023-06-30T19:08:35.000Z,41.80
2023-06-30T19:11:01.661Z,42.00
2023-06-30T19:13:28.289Z,42.00
2023-06-30T19:15:54.937Z,42.10
2023-06-30T19:18:21.661Z,41.80
2023-06-30T19:20:48.449Z,42.10
2023-06-30T19:23:15.192Z,42.80
2023-06-30T19:25:44.267Z,43.50
2023-06-30T19:28:11.246Z,44.00
2023-06-30T19:30:37.842Z,44.20
2023-06-30T19:33:07.133Z,44.30
2023-06-30T19:35:33.778Z,44.40
2023-06-30T19:38:00.552Z,44.50
2023-06-30T19:40:27.396Z,44.70
2023-06-30T19:42:54.137Z,44.90
2023-06-30T19:45:20.870Z,44.90
2023-06-30T19:47:47.702Z,45.20
2023-06-30T19:50:15.112Z,45.60
2023-06-30T19:52:41.839Z,45.70
2023-06-30T19:55:08.871Z,45.80
2023-06-30T19:57:35.618Z,46.40
2023-06-30T20:00:02.541Z,46.50
2023-06-30T20:02:29.252Z,46.40
2023-06-30T20:04:57.105Z,46.90
2023-06-30T20:07:28.699Z,47.30
2023-06-30T20:09:55.341Z,48.00
2023-06-30T20:12:21.950Z,48.10
2023-06-30T20:14:51.097Z,48.10
2023-06-30T20:17:20.174Z,48.10
2023-06-30T20:19:46.807Z,48.50
2023-06-30T20:22:13.495Z,48.50
2023-06-30T20:24:42.527Z,49.00
2023-06-30T20:27:09.197Z,49.10
2023-06-30T20:29:35.875Z,49.30
2023-06-30T20:32:02.537Z,50.10
2023-06-30T20:34:29.107Z,50.60
2023-06-30T20:36:55.745Z,50.80
2023-06-30T20:39:22.428Z,50.80
2023-06-30T20:41:51.572Z,51.20
2023-06-30T20:44:18.187Z,51.80
2023-06-30T20:46:47.337Z,52.40
2023-06-30T20:49:14.005Z,52.70
2023-06-30T20:51:40.622Z,52.70
2023-06-30T20:54:07.259Z,53.00
2023-06-30T20:56:33.938Z,53.30
2023-06-30T20:59:00.560Z,53.30
2023-06-30T21:01:27.231Z,53.30
2023-06-30T21:03:55.008Z,53.10
2023-06-30T21:06:24.315Z,52.80
2023-06-30T21:08:51.021Z,52.60
2023-06-30T21:11:18.641Z,52.90
2023-06-30T21:13:47.627Z,53.00
2023-06-30T21:16:14.356Z,53.50
2023-06-30T21:18:41.406Z,54.00
2023-06-30T21:21:08.097Z,54.60
2023-06-30T21:23:34.685Z,54.50
2023-06-30T21:26:02.148Z,54.50
2023-06-30T21:28:31.225Z,54.70
2023-06-30T21:30:59.203Z,54.80
2023-06-30T21:33:26.311Z,55.20
2023-06-30T21:35:55.369Z,55.40
2023-06-30T21:38:24.490Z,55.90
2023-06-30T21:40:51.186Z,56.00
2023-06-30T21:43:17.772Z,55.90
2023-06-30T21:45:44.392Z,56.00
2023-06-30T21:48:13.971Z,56.60
2023-06-30T21:50:40.867Z,57.10
2023-06-30T21:53:07.522Z,57.40
2023-06-30T21:55:35.150Z,57.20
2023-06-30T21:58:06.561Z,57.80
2023-06-30T22:00:43.182Z,57.70
2023-06-30T22:03:09.855Z,58.10
2023-06-30T22:05:36.528Z,58.10
2023-06-30T22:08:03.166Z,57.90
2023-06-30T22:10:29.762Z,58.10
2023-06-30T22:12:56.493Z,58.40
2023-06-30T22:15:25.027Z,59.00
2023-06-30T22:17:54.201Z,59.20
2023-06-30T22:20:22.757Z,59.20
2023-06-30T22:22:51.776Z,59.20
2023-06-30T22:25:20.765Z,59.60
2023-06-30T22:27:48.025Z,59.60
2023-06-30T22:30:14.891Z,59.20
2023-06-30T22:32:44.078Z,59.80
2023-06-30T22:35:10.990Z,60.30
2023-06-30T22:37:39.988Z,60.20
2023-06-30T22:40:06.934Z,60.60
2023-06-30T22:42:33.577Z,60.60
2023-06-30T22:45:01.622Z,60.70
2023-06-30T22:47:30.490Z,60.10
2023-06-30T22:49:57.266Z,60.50
2023-06-30T22:52:25.978Z,60.70
2023-06-30T22:54:55.096Z,60.90
2023-06-30T22:57:21.710Z,61.40
2023-06-30T22:59:52.233Z,61.60
2023-06-30T23:02:19.390Z,61.90
2023-06-30T23:04:48.612Z,61.70
2023-06-30T23:07:15.437Z,62.00
2023-06-30T23:09:42.083Z,61.70
2023-06-30T23:12:11.319Z,61.70
2023-06-30T23:14:37.973Z,62.00
2023-06-30T23:17:05.048Z,62.50
2023-06-30T23:19:32.999Z,62.50
2023-06-30T23:22:08.468Z,62.40
2023-06-30T23:24:35.834Z,62.60
2023-06-30T23:27:05.471Z,62.30
2023-06-30T23:29:36.205Z,62.30
2023-06-30T23:32:11.408Z,62.30
2023-06-30T23:34:38.504Z,62.40
2023-06-30T23:37:05.484Z,62.60
2023-06-30T23:39:37.454Z,62.50
2023-06-30T23:42:06.768Z,62.20
2023-06-30T23:44:33.433Z,62.80
2023-06-30T23:47:04.245Z,62.70
2023-06-30T23:49:31.777Z,63.30
2023-06-30T23:52:00.816Z,63.80
2023-06-30T23:54:27.411Z,63.40
2023-06-30T23:56:56.375Z,62.70
2023-06-30T23:59:22.964Z,63.30
